<?xml version="1.0" encoding="UTF-8"?>
<gpx version="1.1" creator="https://www.youtrack.es" xsi:schemaLocation="http://www.topografix.com/GPX/1/1 http://www.topografix.com/GPX/1/1/gpx.xsd http://www.garmin.com/xmlschemas/GpxExtensions/v3 http://www.garmin.com/xmlschemas/GpxExtensionsv3.xsd http://www.garmin.com/xmlschemas/TrackPointExtension/v1 http://www.garmin.com/xmlschemas/TrackPointExtensionv1.xsd" xmlns:gpxtpx="http://www.garmin.com/xmlschemas/TrackPointExtension/v1" xmlns:gpxx="http://www.garmin.com/xmlschemas/GpxExtensions/v3" xmlns:xsi="http://www.w3.org/2001/XMLSchema-instance">
  <metadata>
    <link href="https://www.youtrack.es">
      <text>YouTrack.es</text>
    </link>
    <time>2026-05-08T06:50:30Z</time>
  </metadata>
  <trk>
    <src>https://www.youtrack.es</src>
    <link href="https://www.youtrack.es/ruta/331-orense-cachamuina-poligono">
      <text>YouTrack.es</text>
    </link>
    <trkseg>
      <trkpt lat="42.339658723324604" lon="-7.8509121058349365">
        <ele>130.42</ele>
      </trkpt>
      <trkpt lat="42.34014731114177" lon="-7.851702599227906">
        <ele>145.44</ele>
      </trkpt>
      <trkpt lat="42.34069450130905" lon="-7.8517884299163825">
        <ele>150.07</ele>
      </trkpt>
      <trkpt lat="42.340868966850636" lon="-7.850940851867676">
        <ele>159.01</ele>
      </trkpt>
      <trkpt lat="42.34286735582168" lon="-7.8516382262115485">
        <ele>165.01</ele>
      </trkpt>
      <trkpt lat="42.343755508450066" lon="-7.849481730163575">
        <ele>175.05</ele>
      </trkpt>
      <trkpt lat="42.344722946003884" lon="-7.849749951065064">
        <ele>185.01</ele>
      </trkpt>
      <trkpt lat="42.3454842030524" lon="-7.851659683883668">
        <ele>190.03</ele>
      </trkpt>
      <trkpt lat="42.346012407204654" lon="-7.850733563507106">
        <ele>203.01</ele>
      </trkpt>
      <trkpt lat="42.34768552622236" lon="-7.8493173571472425">
        <ele>210.07</ele>
      </trkpt>
      <trkpt lat="42.34840401499468" lon="-7.8493031878356305">
        <ele>213.08</ele>
      </trkpt>
      <trkpt lat="42.34891456632432" lon="-7.848974034393336">
        <ele>227.49</ele>
      </trkpt>
      <trkpt lat="42.349515" lon="-7.849343999999974">
        <ele>236.06</ele>
      </trkpt>
      <trkpt lat="42.349706" lon="-7.849680000000035">
        <ele>245.41</ele>
      </trkpt>
      <trkpt lat="42.350321" lon="-7.849805999999944">
        <ele>252.1</ele>
      </trkpt>
      <trkpt lat="42.350528" lon="-7.849190000000021">
        <ele>253.01</ele>
      </trkpt>
      <trkpt lat="42.351558" lon="-7.849342999999976">
        <ele>255.01</ele>
      </trkpt>
      <trkpt lat="42.352386" lon="-7.849100000000021">
        <ele>257.06</ele>
      </trkpt>
      <trkpt lat="42.352622" lon="-7.848877000000016">
        <ele>260.46</ele>
      </trkpt>
      <trkpt lat="42.353033" lon="-7.847686000000067">
        <ele>260.04</ele>
      </trkpt>
      <trkpt lat="42.353564" lon="-7.8467130000000225">
        <ele>267.02</ele>
      </trkpt>
      <trkpt lat="42.353967" lon="-7.8464460000000145">
        <ele>272.01</ele>
      </trkpt>
      <trkpt lat="42.35379" lon="-7.844690000000014">
        <ele>279.49</ele>
      </trkpt>
      <trkpt lat="42.353388" lon="-7.843613000000005">
        <ele>282.04</ele>
      </trkpt>
      <trkpt lat="42.35383" lon="-7.842642000000069">
        <ele>288.42</ele>
      </trkpt>
      <trkpt lat="42.35445" lon="-7.841871999999967">
        <ele>295.02</ele>
      </trkpt>
      <trkpt lat="42.354424" lon="-7.841097999999988">
        <ele>304.06</ele>
      </trkpt>
      <trkpt lat="42.355374" lon="-7.8396040000000085">
        <ele>316.06</ele>
      </trkpt>
      <trkpt lat="42.355577" lon="-7.838862999999947">
        <ele>317.06</ele>
      </trkpt>
      <trkpt lat="42.355534" lon="-7.838367999999946">
        <ele>312.46</ele>
      </trkpt>
      <trkpt lat="42.355904" lon="-7.837940000000003">
        <ele>314.09</ele>
      </trkpt>
      <trkpt lat="42.356042" lon="-7.836092000000008">
        <ele>313.05</ele>
      </trkpt>
      <trkpt lat="42.355786" lon="-7.835269000000039">
        <ele>315.53</ele>
      </trkpt>
      <trkpt lat="42.355352" lon="-7.834712999999965">
        <ele>313.09</ele>
      </trkpt>
      <trkpt lat="42.355418" lon="-7.83457599999997">
        <ele>310.04</ele>
      </trkpt>
      <trkpt lat="42.355872" lon="-7.834611999999993">
        <ele>298.1</ele>
      </trkpt>
      <trkpt lat="42.3562" lon="-7.83442500000001">
        <ele>287.01</ele>
      </trkpt>
      <trkpt lat="42.356131" lon="-7.833452999999963">
        <ele>272.53</ele>
      </trkpt>
      <trkpt lat="42.356169" lon="-7.832442000000015">
        <ele>258.46</ele>
      </trkpt>
      <trkpt lat="42.355541" lon="-7.831831999999963">
        <ele>253.59</ele>
      </trkpt>
      <trkpt lat="42.354198" lon="-7.831345000000056">
        <ele>249.09</ele>
      </trkpt>
      <trkpt lat="42.354138" lon="-7.830056000000013">
        <ele>239.03</ele>
      </trkpt>
      <trkpt lat="42.352821" lon="-7.829445999999962">
        <ele>239.09</ele>
      </trkpt>
      <trkpt lat="42.352575" lon="-7.828712999999993">
        <ele>243.01</ele>
      </trkpt>
      <trkpt lat="42.35187" lon="-7.828200000000038">
        <ele>240.05</ele>
      </trkpt>
      <trkpt lat="42.3516" lon="-7.8281070000000454">
        <ele>241.04</ele>
      </trkpt>
      <trkpt lat="42.351212" lon="-7.828345000000013"/>
      <trkpt lat="42.351039" lon="-7.828913999999941"/>
      <trkpt lat="42.350392" lon="-7.828842000000009"/>
      <trkpt lat="42.350578" lon="-7.82988899999998"/>
      <trkpt lat="42.350249" lon="-7.830655999999976"/>
      <trkpt lat="42.350236" lon="-7.831208999999944"/>
      <trkpt lat="42.34951" lon="-7.83112200000005"/>
      <trkpt lat="42.349222" lon="-7.830829999999992"/>
      <trkpt lat="42.348652" lon="-7.8292169999999714"/>
      <trkpt lat="42.348345" lon="-7.8293859999999995"/>
      <trkpt lat="42.347865" lon="-7.830106000000001"/>
      <trkpt lat="42.348035" lon="-7.829943">
        <ele>244.87</ele>
        <time>2012-06-05T07:50:04Z</time>
      </trkpt>
      <trkpt lat="42.347452" lon="-7.830014">
        <ele>246.22</ele>
        <time>2012-06-05T07:50:41Z</time>
      </trkpt>
      <trkpt lat="42.347194" lon="-7.829535">
        <ele>237.11</ele>
        <time>2012-06-05T07:51:02Z</time>
      </trkpt>
      <trkpt lat="42.347704" lon="-7.828826">
        <ele>225.65</ele>
        <time>2012-06-05T07:51:43Z</time>
      </trkpt>
      <trkpt lat="42.347074" lon="-7.828087">
        <ele>220.90</ele>
        <time>2012-06-05T07:52:09Z</time>
      </trkpt>
      <trkpt lat="42.347204" lon="-7.827983">
        <ele>218.89</ele>
        <time>2012-06-05T07:52:19Z</time>
      </trkpt>
      <trkpt lat="42.347207" lon="-7.827622">
        <ele>212.12</ele>
        <time>2012-06-05T07:52:29Z</time>
      </trkpt>
      <trkpt lat="42.346820" lon="-7.826925">
        <ele>219.84</ele>
        <time>2012-06-05T07:52:58Z</time>
      </trkpt>
      <trkpt lat="42.346246" lon="-7.826504">
        <ele>228.98</ele>
        <time>2012-06-05T07:53:34Z</time>
      </trkpt>
      <trkpt lat="42.345954" lon="-7.826050">
        <ele>229.91</ele>
        <time>2012-06-05T07:54:09Z</time>
      </trkpt>
      <trkpt lat="42.346039" lon="-7.826476">
        <ele>220.32</ele>
        <time>2012-06-05T07:54:30Z</time>
      </trkpt>
      <trkpt lat="42.345936" lon="-7.825605">
        <ele>221.24</ele>
        <time>2012-06-05T07:54:49Z</time>
      </trkpt>
      <trkpt lat="42.346074" lon="-7.825229">
        <ele>221.71</ele>
        <time>2012-06-05T07:55:04Z</time>
      </trkpt>
      <trkpt lat="42.345925" lon="-7.824802">
        <ele>223.61</ele>
        <time>2012-06-05T07:55:10Z</time>
      </trkpt>
      <trkpt lat="42.346513" lon="-7.824554">
        <ele>226.59</ele>
        <time>2012-06-05T07:55:41Z</time>
      </trkpt>
      <trkpt lat="42.347021" lon="-7.823929">
        <ele>228.05</ele>
        <time>2012-06-05T07:56:08Z</time>
      </trkpt>
      <trkpt lat="42.346952" lon="-7.822508">
        <ele>242.41</ele>
        <time>2012-06-05T07:57:14Z</time>
      </trkpt>
      <trkpt lat="42.347099" lon="-7.822483">
        <ele>247.75</ele>
        <time>2012-06-05T07:57:28Z</time>
      </trkpt>
      <trkpt lat="42.347146" lon="-7.822224">
        <ele>257.84</ele>
        <time>2012-06-05T07:57:53Z</time>
      </trkpt>
      <trkpt lat="42.347378" lon="-7.822294">
        <ele>264.56</ele>
        <time>2012-06-05T07:58:12Z</time>
      </trkpt>
      <trkpt lat="42.347711" lon="-7.821908">
        <ele>278.05</ele>
        <time>2012-06-05T07:58:46Z</time>
      </trkpt>
      <trkpt lat="42.347981" lon="-7.821913">
        <ele>281.38</ele>
        <time>2012-06-05T07:59:04Z</time>
      </trkpt>
      <trkpt lat="42.348340" lon="-7.821672">
        <ele>279.94</ele>
        <time>2012-06-05T07:59:21Z</time>
      </trkpt>
      <trkpt lat="42.349726" lon="-7.820352">
        <ele>276.02</ele>
        <time>2012-06-05T08:00:22Z</time>
      </trkpt>
      <trkpt lat="42.349526" lon="-7.818788">
        <ele>286.61</ele>
        <time>2012-06-05T08:01:12Z</time>
      </trkpt>
      <trkpt lat="42.350360" lon="-7.818118">
        <ele>299.68</ele>
        <time>2012-06-05T08:02:00Z</time>
      </trkpt>
      <trkpt lat="42.350699" lon="-7.817334">
        <ele>298.70</ele>
        <time>2012-06-05T08:02:28Z</time>
      </trkpt>
      <trkpt lat="42.350671" lon="-7.816947">
        <ele>297.22</ele>
        <time>2012-06-05T08:02:38Z</time>
      </trkpt>
      <trkpt lat="42.350009" lon="-7.815848">
        <ele>297.25</ele>
        <time>2012-06-05T08:03:14Z</time>
      </trkpt>
      <trkpt lat="42.349494" lon="-7.814405">
        <ele>291.48</ele>
        <time>2012-06-05T08:03:52Z</time>
      </trkpt>
      <trkpt lat="42.348702" lon="-7.813255">
        <ele>286.19</ele>
        <time>2012-06-05T08:04:26Z</time>
      </trkpt>
      <trkpt lat="42.348644" lon="-7.812873">
        <ele>283.72</ele>
        <time>2012-06-05T08:04:35Z</time>
      </trkpt>
      <trkpt lat="42.349139" lon="-7.812213">
        <ele>279.92</ele>
        <time>2012-06-05T08:05:37Z</time>
      </trkpt>
      <trkpt lat="42.348522" lon="-7.811687">
        <ele>278.99</ele>
        <time>2012-06-05T08:06:00Z</time>
      </trkpt>
      <trkpt lat="42.347814" lon="-7.811485">
        <ele>277.51</ele>
        <time>2012-06-05T08:06:22Z</time>
      </trkpt>
      <trkpt lat="42.347145" lon="-7.809082">
        <ele>275.61</ele>
        <time>2012-06-05T08:07:28Z</time>
      </trkpt>
      <trkpt lat="42.346738" lon="-7.808893">
        <ele>275.18</ele>
        <time>2012-06-05T08:07:39Z</time>
      </trkpt>
      <trkpt lat="42.346656" lon="-7.808979">
        <ele>275.19</ele>
        <time>2012-06-05T08:07:44Z</time>
      </trkpt>
      <trkpt lat="42.345950" lon="-7.808321">
        <ele>279.44</ele>
        <time>2012-06-05T08:08:21Z</time>
      </trkpt>
      <trkpt lat="42.344963" lon="-7.808375">
        <ele>289.52</ele>
        <time>2012-06-05T08:09:11Z</time>
      </trkpt>
      <trkpt lat="42.344215" lon="-7.808498">
        <ele>300.68</ele>
        <time>2012-06-05T08:09:53Z</time>
      </trkpt>
      <trkpt lat="42.343381" lon="-7.809330">
        <ele>305.46</ele>
        <time>2012-06-05T08:10:36Z</time>
      </trkpt>
      <trkpt lat="42.343055" lon="-7.809363">
        <ele>303.97</ele>
        <time>2012-06-05T08:10:48Z</time>
      </trkpt>
      <trkpt lat="42.342226" lon="-7.807885">
        <ele>325.14</ele>
        <time>2012-06-05T08:12:03Z</time>
      </trkpt>
      <trkpt lat="42.342160" lon="-7.806173">
        <ele>328.42</ele>
        <time>2012-06-05T08:12:55Z</time>
      </trkpt>
      <trkpt lat="42.341559" lon="-7.805638">
        <ele>330.81</ele>
        <time>2012-06-05T08:13:22Z</time>
      </trkpt>
      <trkpt lat="42.339809" lon="-7.805348">
        <ele>329.91</ele>
        <time>2012-06-05T08:14:18Z</time>
      </trkpt>
      <trkpt lat="42.339308" lon="-7.805050">
        <ele>330.45</ele>
        <time>2012-06-05T08:14:35Z</time>
      </trkpt>
      <trkpt lat="42.338462" lon="-7.803191">
        <ele>329.47</ele>
        <time>2012-06-05T08:15:33Z</time>
      </trkpt>
      <trkpt lat="42.338121" lon="-7.802755">
        <ele>326.57</ele>
        <time>2012-06-05T08:15:47Z</time>
      </trkpt>
      <trkpt lat="42.338661" lon="-7.801565">
        <ele>326.08</ele>
        <time>2012-06-05T08:16:22Z</time>
      </trkpt>
      <trkpt lat="42.338313" lon="-7.800880">
        <ele>325.17</ele>
        <time>2012-06-05T08:16:44Z</time>
      </trkpt>
      <trkpt lat="42.338456" lon="-7.800036">
        <ele>326.04</ele>
        <time>2012-06-05T08:17:05Z</time>
      </trkpt>
      <trkpt lat="42.338004" lon="-7.799807">
        <ele>326.07</ele>
        <time>2012-06-05T08:17:22Z</time>
      </trkpt>
      <trkpt lat="42.336659" lon="-7.799989">
        <ele>326.10</ele>
        <time>2012-06-05T08:18:06Z</time>
      </trkpt>
      <trkpt lat="42.335873" lon="-7.799887">
        <ele>325.53</ele>
        <time>2012-06-05T08:18:33Z</time>
      </trkpt>
      <trkpt lat="42.335444" lon="-7.798970">
        <ele>325.52</ele>
        <time>2012-06-05T08:19:00Z</time>
      </trkpt>
      <trkpt lat="42.334904" lon="-7.798289">
        <ele>325.51</ele>
        <time>2012-06-05T08:19:25Z</time>
      </trkpt>
      <trkpt lat="42.334753" lon="-7.797092">
        <ele>326.03</ele>
        <time>2012-06-05T08:19:57Z</time>
      </trkpt>
      <trkpt lat="42.334931" lon="-7.796216">
        <ele>326.06</ele>
        <time>2012-06-05T08:20:19Z</time>
      </trkpt>
      <trkpt lat="42.334698" lon="-7.794934">
        <ele>326.56</ele>
        <time>2012-06-05T08:20:50Z</time>
      </trkpt>
      <trkpt lat="42.335082" lon="-7.794120">
        <ele>326.08</ele>
        <time>2012-06-05T08:21:16Z</time>
      </trkpt>
      <trkpt lat="42.334877" lon="-7.794015">
        <ele>325.57</ele>
        <time>2012-06-05T08:21:26Z</time>
      </trkpt>
      <trkpt lat="42.334611" lon="-7.794236">
        <ele>326.09</ele>
        <time>2012-06-05T08:21:38Z</time>
      </trkpt>
      <trkpt lat="42.333502" lon="-7.796260">
        <ele>326.51</ele>
        <time>2012-06-05T08:22:30Z</time>
      </trkpt>
      <trkpt lat="42.333276" lon="-7.796433">
        <ele>325.58</ele>
        <time>2012-06-05T08:22:38Z</time>
      </trkpt>
      <trkpt lat="42.332829" lon="-7.796422">
        <ele>325.59</ele>
        <time>2012-06-05T08:22:52Z</time>
      </trkpt>
      <trkpt lat="42.332517" lon="-7.797079">
        <ele>325.52</ele>
        <time>2012-06-05T08:23:08Z</time>
      </trkpt>
      <trkpt lat="42.332030" lon="-7.797563">
        <ele>325.51</ele>
        <time>2012-06-05T08:23:26Z</time>
      </trkpt>
      <trkpt lat="42.329799" lon="-7.798250">
        <ele>327.58</ele>
        <time>2012-06-05T08:24:41Z</time>
      </trkpt>
      <trkpt lat="42.328928" lon="-7.798848">
        <ele>331.32</ele>
        <time>2012-06-05T08:25:23Z</time>
      </trkpt>
      <trkpt lat="42.328262" lon="-7.798858">
        <ele>333.21</ele>
        <time>2012-06-05T08:25:52Z</time>
      </trkpt>
      <trkpt lat="42.327882" lon="-7.798559">
        <ele>338.08</ele>
        <time>2012-06-05T08:26:13Z</time>
      </trkpt>
      <trkpt lat="42.327803" lon="-7.798174">
        <ele>345.39</ele>
        <time>2012-06-05T08:26:41Z</time>
      </trkpt>
      <trkpt lat="42.329033" lon="-7.797976">
        <ele>344.38</ele>
        <time>2012-06-05T08:27:30Z</time>
      </trkpt>
      <trkpt lat="42.330089" lon="-7.797081">
        <ele>345.77</ele>
        <time>2012-06-05T08:28:14Z</time>
      </trkpt>
      <trkpt lat="42.330655" lon="-7.796409">
        <ele>346.74</ele>
        <time>2012-06-05T08:28:40Z</time>
      </trkpt>
      <trkpt lat="42.331686" lon="-7.795910">
        <ele>352.58</ele>
        <time>2012-06-05T08:29:22Z</time>
      </trkpt>
      <trkpt lat="42.332231" lon="-7.794895">
        <ele>356.81</ele>
        <time>2012-06-05T08:30:02Z</time>
      </trkpt>
      <trkpt lat="42.332740" lon="-7.793511">
        <ele>367.81</ele>
        <time>2012-06-05T08:30:52Z</time>
      </trkpt>
      <trkpt lat="42.333419" lon="-7.792668">
        <ele>374.18</ele>
        <time>2012-06-05T08:31:32Z</time>
      </trkpt>
      <trkpt lat="42.333971" lon="-7.791547">
        <ele>392.86</ele>
        <time>2012-06-05T08:32:29Z</time>
      </trkpt>
      <trkpt lat="42.334263" lon="-7.790016">
        <ele>419.82</ele>
        <time>2012-06-05T08:33:44Z</time>
      </trkpt>
      <trkpt lat="42.333388" lon="-7.789813">
        <ele>428.95</ele>
        <time>2012-06-05T08:34:27Z</time>
      </trkpt>
      <trkpt lat="42.332924" lon="-7.790403">
        <ele>436.68</ele>
        <time>2012-06-05T08:35:53Z</time>
      </trkpt>
      <trkpt lat="42.333023" lon="-7.790255">
        <ele>434.74</ele>
        <time>2012-06-05T08:37:17Z</time>
      </trkpt>
      <trkpt lat="42.332878" lon="-7.789983">
        <ele>431.32</ele>
        <time>2012-06-05T08:37:55Z</time>
      </trkpt>
      <trkpt lat="42.332457" lon="-7.790359">
        <ele>427.94</ele>
        <time>2012-06-05T08:38:14Z</time>
      </trkpt>
      <trkpt lat="42.331880" lon="-7.790403">
        <ele>421.75</ele>
        <time>2012-06-05T08:38:33Z</time>
      </trkpt>
      <trkpt lat="42.331502" lon="-7.790244">
        <ele>418.81</ele>
        <time>2012-06-05T08:38:46Z</time>
      </trkpt>
      <trkpt lat="42.331347" lon="-7.789445">
        <ele>417.41</ele>
        <time>2012-06-05T08:39:07Z</time>
      </trkpt>
      <trkpt lat="42.331185" lon="-7.789318">
        <ele>415.10</ele>
        <time>2012-06-05T08:39:13Z</time>
      </trkpt>
      <trkpt lat="42.331000" lon="-7.789365">
        <ele>413.01</ele>
        <time>2012-06-05T08:39:19Z</time>
      </trkpt>
      <trkpt lat="42.330811" lon="-7.789724">
        <ele>410.14</ele>
        <time>2012-06-05T08:39:30Z</time>
      </trkpt>
      <trkpt lat="42.329788" lon="-7.792278">
        <ele>398.69</ele>
        <time>2012-06-05T08:40:34Z</time>
      </trkpt>
      <trkpt lat="42.328877" lon="-7.793498">
        <ele>386.15</ele>
        <time>2012-06-05T08:41:12Z</time>
      </trkpt>
      <trkpt lat="42.327731" lon="-7.795798">
        <ele>377.56</ele>
        <time>2012-06-05T08:42:12Z</time>
      </trkpt>
      <trkpt lat="42.327088" lon="-7.796144">
        <ele>370.24</ele>
        <time>2012-06-05T08:42:30Z</time>
      </trkpt>
      <trkpt lat="42.325937" lon="-7.796344">
        <ele>359.22</ele>
        <time>2012-06-05T08:43:01Z</time>
      </trkpt>
      <trkpt lat="42.325555" lon="-7.796696">
        <ele>353.90</ele>
        <time>2012-06-05T08:43:13Z</time>
      </trkpt>
      <trkpt lat="42.325355" lon="-7.797301">
        <ele>348.11</ele>
        <time>2012-06-05T08:43:25Z</time>
      </trkpt>
      <trkpt lat="42.326020" lon="-7.797877">
        <ele>343.81</ele>
        <time>2012-06-05T08:43:45Z</time>
      </trkpt>
      <trkpt lat="42.327133" lon="-7.798411">
        <ele>342.41</ele>
        <time>2012-06-05T08:44:26Z</time>
      </trkpt>
      <trkpt lat="42.326746" lon="-7.798874">
        <ele>331.82</ele>
        <time>2012-06-05T08:44:47Z</time>
      </trkpt>
      <trkpt lat="42.326851" lon="-7.799702">
        <ele>339.55</ele>
        <time>2012-06-05T08:45:29Z</time>
      </trkpt>
      <trkpt lat="42.326230" lon="-7.799548">
        <ele>338.55</ele>
        <time>2012-06-05T08:45:54Z</time>
      </trkpt>
      <trkpt lat="42.326062" lon="-7.800011">
        <ele>345.36</ele>
        <time>2012-06-05T08:46:18Z</time>
      </trkpt>
      <trkpt lat="42.325106" lon="-7.800428">
        <ele>361.63</ele>
        <time>2012-06-05T08:47:12Z</time>
      </trkpt>
      <trkpt lat="42.320972" lon="-7.801204">
        <ele>363.04</ele>
        <time>2012-06-05T08:50:18Z</time>
      </trkpt>
      <trkpt lat="42.320712" lon="-7.801469">
        <ele>363.09</ele>
        <time>2012-06-05T08:50:30Z</time>
      </trkpt>
      <trkpt lat="42.320485" lon="-7.803670">
        <ele>366.98</ele>
        <time>2012-06-05T08:51:30Z</time>
      </trkpt>
      <trkpt lat="42.319829" lon="-7.803884">
        <ele>366.42</ele>
        <time>2012-06-05T08:51:56Z</time>
      </trkpt>
      <trkpt lat="42.318607" lon="-7.803766">
        <ele>363.01</ele>
        <time>2012-06-05T08:52:36Z</time>
      </trkpt>
      <trkpt lat="42.318021" lon="-7.804444">
        <ele>363.09</ele>
        <time>2012-06-05T08:53:02Z</time>
      </trkpt>
      <trkpt lat="42.317009" lon="-7.804000">
        <ele>357.37</ele>
        <time>2012-06-05T08:53:36Z</time>
      </trkpt>
      <trkpt lat="42.316685" lon="-7.804116">
        <ele>355.83</ele>
        <time>2012-06-05T08:53:51Z</time>
      </trkpt>
      <trkpt lat="42.314953" lon="-7.803085">
        <ele>350.20</ele>
        <time>2012-06-05T08:54:50Z</time>
      </trkpt>
      <trkpt lat="42.314466" lon="-7.803136">
        <ele>349.64</ele>
        <time>2012-06-05T08:55:08Z</time>
      </trkpt>
      <trkpt lat="42.313877" lon="-7.803609">
        <ele>349.61</ele>
        <time>2012-06-05T08:55:30Z</time>
      </trkpt>
      <trkpt lat="42.313828" lon="-7.805285">
        <ele>345.77</ele>
        <time>2012-06-05T08:56:10Z</time>
      </trkpt>
      <trkpt lat="42.313947" lon="-7.806368">
        <ele>342.95</ele>
        <time>2012-06-05T08:56:42Z</time>
      </trkpt>
      <trkpt lat="42.314096" lon="-7.806796">
        <ele>344.80</ele>
        <time>2012-06-05T08:57:05Z</time>
      </trkpt>
      <trkpt lat="42.314961" lon="-7.807692">
        <ele>350.52</ele>
        <time>2012-06-05T08:58:01Z</time>
      </trkpt>
      <trkpt lat="42.316037" lon="-7.807783">
        <ele>351.01</ele>
        <time>2012-06-05T08:58:35Z</time>
      </trkpt>
      <trkpt lat="42.316503" lon="-7.808289">
        <ele>352.93</ele>
        <time>2012-06-05T08:58:57Z</time>
      </trkpt>
      <trkpt lat="42.319432" lon="-7.812209">
        <ele>369.35</ele>
        <time>2012-06-05T09:01:45Z</time>
      </trkpt>
      <trkpt lat="42.319476" lon="-7.812652">
        <ele>370.29</ele>
        <time>2012-06-05T09:02:00Z</time>
      </trkpt>
      <trkpt lat="42.320683" lon="-7.814866">
        <ele>376.58</ele>
        <time>2012-06-05T09:03:19Z</time>
      </trkpt>
      <trkpt lat="42.321362" lon="-7.815827">
        <ele>387.12</ele>
        <time>2012-06-05T09:04:08Z</time>
      </trkpt>
      <trkpt lat="42.322129" lon="-7.816467">
        <ele>395.27</ele>
        <time>2012-06-05T09:04:52Z</time>
      </trkpt>
      <trkpt lat="42.322190" lon="-7.816897">
        <ele>397.65</ele>
        <time>2012-06-05T09:05:14Z</time>
      </trkpt>
      <trkpt lat="42.321363" lon="-7.818408">
        <ele>408.77</ele>
        <time>2012-06-05T09:06:14Z</time>
      </trkpt>
      <trkpt lat="42.322061" lon="-7.819270">
        <ele>417.83</ele>
        <time>2012-06-05T09:07:00Z</time>
      </trkpt>
      <trkpt lat="42.322194" lon="-7.820959">
        <ele>427.42</ele>
        <time>2012-06-05T09:08:00Z</time>
      </trkpt>
      <trkpt lat="42.322725" lon="-7.822181">
        <ele>437.11</ele>
        <time>2012-06-05T09:08:44Z</time>
      </trkpt>
      <trkpt lat="42.322937" lon="-7.823603">
        <ele>434.77</ele>
        <time>2012-06-05T09:09:25Z</time>
      </trkpt>
      <trkpt lat="42.323744" lon="-7.823711">
        <ele>437.56</ele>
        <time>2012-06-05T09:09:57Z</time>
      </trkpt>
      <trkpt lat="42.324231" lon="-7.824858">
        <ele>438.05</ele>
        <time>2012-06-05T09:10:37Z</time>
      </trkpt>
      <trkpt lat="42.324308" lon="-7.825378">
        <ele>437.56</ele>
        <time>2012-06-05T09:10:50Z</time>
      </trkpt>
      <trkpt lat="42.325549" lon="-7.826994">
        <ele>439.04</ele>
        <time>2012-06-05T09:11:46Z</time>
      </trkpt>
      <trkpt lat="42.325972" lon="-7.827261">
        <ele>432.38</ele>
        <time>2012-06-05T09:12:01Z</time>
      </trkpt>
      <trkpt lat="42.326784" lon="-7.828722">
        <ele>423.16</ele>
        <time>2012-06-05T09:12:44Z</time>
      </trkpt>
      <trkpt lat="42.326926" lon="-7.829246">
        <ele>421.80</ele>
        <time>2012-06-05T09:12:58Z</time>
      </trkpt>
      <trkpt lat="42.328192" lon="-7.830560">
        <ele>413.05</ele>
        <time>2012-06-05T09:13:50Z</time>
      </trkpt>
      <trkpt lat="42.328638" lon="-7.831248">
        <ele>407.32</ele>
        <time>2012-06-05T09:14:13Z</time>
      </trkpt>
      <trkpt lat="42.329297" lon="-7.831520">
        <ele>404.41</ele>
        <time>2012-06-05T09:14:40Z</time>
      </trkpt>
      <trkpt lat="42.330962" lon="-7.833247">
        <ele>395.73</ele>
        <time>2012-06-05T09:15:57Z</time>
      </trkpt>
      <trkpt lat="42.332083" lon="-7.834175">
        <ele>386.18</ele>
        <time>2012-06-05T09:16:41Z</time>
      </trkpt>
      <trkpt lat="42.333021" lon="-7.834320">
        <ele>373.13</ele>
        <time>2012-06-05T09:17:15Z</time>
      </trkpt>
      <trkpt lat="42.333410" lon="-7.834228">
        <ele>368.36</ele>
        <time>2012-06-05T09:17:28Z</time>
      </trkpt>
      <trkpt lat="42.333414" lon="-7.834763">
        <ele>363.03</ele>
        <time>2012-06-05T09:17:42Z</time>
      </trkpt>
      <trkpt lat="42.333732" lon="-7.836012">
        <ele>351.04</ele>
        <time>2012-06-05T09:18:10Z</time>
      </trkpt>
      <trkpt lat="42.333360" lon="-7.837086">
        <ele>340.42</ele>
        <time>2012-06-05T09:18:37Z</time>
      </trkpt>
      <trkpt lat="42.333567" lon="-7.838448">
        <ele>337.66</ele>
        <time>2012-06-05T09:19:10Z</time>
      </trkpt>
      <trkpt lat="42.333843" lon="-7.838327">
        <ele>344.30</ele>
        <time>2012-06-05T09:19:28Z</time>
      </trkpt>
      <trkpt lat="42.333975" lon="-7.838489">
        <ele>347.72</ele>
        <time>2012-06-05T09:19:41Z</time>
      </trkpt>
      <trkpt lat="42.334503" lon="-7.839731">
        <ele>366.41</ele>
        <time>2012-06-05T09:21:13Z</time>
      </trkpt>
      <trkpt lat="42.334804" lon="-7.839861">
        <ele>374.69</ele>
        <time>2012-06-05T09:21:47Z</time>
      </trkpt>
      <trkpt lat="42.334990" lon="-7.840396">
        <ele>380.82</ele>
        <time>2012-06-05T09:22:24Z</time>
      </trkpt>
      <trkpt lat="42.335308" lon="-7.840680">
        <ele>379.94</ele>
        <time>2012-06-05T09:22:51Z</time>
      </trkpt>
      <trkpt lat="42.335358" lon="-7.841304">
        <ele>373.67</ele>
        <time>2012-06-05T09:23:13Z</time>
      </trkpt>
      <trkpt lat="42.335544" lon="-7.841549">
        <ele>366.93</ele>
        <time>2012-06-05T09:23:26Z</time>
      </trkpt>
      <trkpt lat="42.335903" lon="-7.841604">
        <ele>363.06</ele>
        <time>2012-06-05T09:23:39Z</time>
      </trkpt>
      <trkpt lat="42.336081" lon="-7.841938">
        <ele>357.40</ele>
        <time>2012-06-05T09:23:53Z</time>
      </trkpt>
      <trkpt lat="42.336193" lon="-7.842837">
        <ele>340.05</ele>
        <time>2012-06-05T09:24:40Z</time>
      </trkpt>
      <trkpt lat="42.336440" lon="-7.843069">
        <ele>337.10</ele>
        <time>2012-06-05T09:25:23Z</time>
      </trkpt>
      <trkpt lat="42.336600" lon="-7.843039">
        <ele>334.21</ele>
        <time>2012-06-05T09:25:45Z</time>
      </trkpt>
      <trkpt lat="42.336695" lon="-7.843277">
        <ele>330.41</ele>
        <time>2012-06-05T09:25:57Z</time>
      </trkpt>
      <trkpt lat="42.336495" lon="-7.843807">
        <ele>316.98</ele>
        <time>2012-06-05T09:26:23Z</time>
      </trkpt>
      <trkpt lat="42.336014" lon="-7.844280">
        <ele>299.15</ele>
        <time>2012-06-05T09:26:52Z</time>
      </trkpt>
      <trkpt lat="42.336154" lon="-7.844879">
        <ele>276.55</ele>
        <time>2012-06-05T09:27:31Z</time>
      </trkpt>
      <trkpt lat="42.337366" lon="-7.845434">
        <ele>258.37</ele>
        <time>2012-06-05T09:28:08Z</time>
      </trkpt>
      <trkpt lat="42.337139" lon="-7.845533">
        <ele>253.09</ele>
        <time>2012-06-05T09:28:20Z</time>
      </trkpt>
      <trkpt lat="42.337121" lon="-7.845769">
        <ele>249.62</ele>
        <time>2012-06-05T09:28:25Z</time>
      </trkpt>
      <trkpt lat="42.337403" lon="-7.847074">
        <ele>234.23</ele>
        <time>2012-06-05T09:28:55Z</time>
      </trkpt>
      <trkpt lat="42.338261" lon="-7.847600">
        <ele>215.57</ele>
        <time>2012-06-05T09:29:24Z</time>
      </trkpt>
      <trkpt lat="42.338807" lon="-7.847644">
        <ele>199.64</ele>
        <time>2012-06-05T09:29:42Z</time>
      </trkpt>
      <trkpt lat="42.338877" lon="-7.847761">
        <ele>196.32</ele>
        <time>2012-06-05T09:29:47Z</time>
      </trkpt>
      <trkpt lat="42.338837" lon="-7.848237">
        <ele>188.11</ele>
        <time>2012-06-05T09:29:58Z</time>
      </trkpt>
      <trkpt lat="42.339212" lon="-7.849314">
        <ele>182.83</ele>
        <time>2012-06-05T09:30:31Z</time>
      </trkpt>
      <trkpt lat="42.339136" lon="-7.849578">
        <ele>181.44</ele>
        <time>2012-06-05T09:30:38Z</time>
      </trkpt>
      <trkpt lat="42.339657" lon="-7.849955">
        <ele>177.60</ele>
        <time>2012-06-05T09:30:56Z</time>
      </trkpt>
    </trkseg>
  </trk>
</gpx>
